sensor_id;sensor_type;location;lat;lon;timestamp;temperature;humidity
4687;DHT22;2357;47.316;-1.348;2022-08-11T00:00:09;27.30;93.40
4687;DHT22;2357;47.316;-1.348;2022-08-11T00:02:43;27.20;93.70
4687;DHT22;2357;47.316;-1.348;2022-08-11T00:05:18;27.20;93.40
4687;DHT22;2357;47.316;-1.348;2022-08-11T00:07:52;27.10;93.50
4687;DHT22;2357;47.316;-1.348;2022-08-11T00:10:24;27.00;93.50
4687;DHT22;2357;47.316;-1.348;2022-08-11T00:13:02;27.00;93.70
4687;DHT22;2357;47.316;-1.348;2022-08-11T00:15:38;27.00;94.10
4687;DHT22;2357;47.316;-1.348;2022-08-11T00:18:05;27.00;94.10
4687;DHT22;2357;47.316;-1.348;2022-08-11T00:20:34;26.90;94.10
4687;DHT22;2357;47.316;-1.348;2022-08-11T00:23:04;26.90;94.10
4687;DHT22;2357;47.316;-1.348;2022-08-11T00:25:40;26.90;94.30
4687;DHT22;2357;47.316;-1.348;2022-08-11T00:28:27;26.80;94.30
4687;DHT22;2357;47.316;-1.348;2022-08-11T00:30:55;26.80;94.60
4687;DHT22;2357;47.316;-1.348;2022-08-11T00:33:23;26.80;94.50
4687;DHT22;2357;47.316;-1.348;2022-08-11T00:35:50;26.70;94.60
4687;DHT22;2357;47.316;-1.348;2022-08-11T00:38:24;26.60;94.50
4687;DHT22;2357;47.316;-1.348;2022-08-11T00:40:56;26.50;94.70
4687;DHT22;2357;47.316;-1.348;2022-08-11T00:51:58;26.60;95.10
4687;DHT22;2357;47.316;-1.348;2022-08-11T01:00:25;26.20;95.40
4687;DHT22;2357;47.316;-1.348;2022-08-11T01:06:01;25.90;95.60
4687;DHT22;2357;47.316;-1.348;2022-08-11T01:14:31;25.90;96.00
4687;DHT22;2357;47.316;-1.348;2022-08-11T01:20:39;25.80;96.30
4687;DHT22;2357;47.316;-1.348;2022-08-11T01:23:18;25.90;96.50
4687;DHT22;2357;47.316;-1.348;2022-08-11T01:26:21;25.70;96.60
4687;DHT22;2357;47.316;-1.348;2022-08-11T01:40:46;25.70;97.40
4687;DHT22;2357;47.316;-1.348;2022-08-11T01:46:51;25.60;97.90
4687;DHT22;2357;47.316;-1.348;2022-08-11T01:52:18;25.50;98.30
4687;DHT22;2357;47.316;-1.348;2022-08-11T02:01:04;25.50;99.20
4687;DHT22;2357;47.316;-1.348;2022-08-11T02:04:06;25.40;99.00
4687;DHT22;2357;47.316;-1.348;2022-08-11T02:06:47;25.40;99.30
4687;DHT22;2357;47.316;-1.348;2022-08-11T02:20:44;24.90;99.90
4687;DHT22;2357;47.316;-1.348;2022-08-11T02:26:49;24.80;99.90
4687;DHT22;2357;47.316;-1.348;2022-08-11T02:32:14;24.70;99.90
4687;DHT22;2357;47.316;-1.348;2022-08-11T02:45:52;24.70;99.90
4687;DHT22;2357;47.316;-1.348;2022-08-11T02:48:51;24.70;99.90
4687;DHT22;2357;47.316;-1.348;2022-08-11T02:52:04;24.80;99.90
4687;DHT22;2357;47.316;-1.348;2022-08-11T03:00:19;24.80;99.90
4687;DHT22;2357;47.316;-1.348;2022-08-11T03:03:24;24.70;99.90
4687;DHT22;2357;47.316;-1.348;2022-08-11T03:14:47;24.40;99.90
4687;DHT22;2357;47.316;-1.348;2022-08-11T03:20:40;24.40;99.90
4687;DHT22;2357;47.316;-1.348;2022-08-11T03:25:59;24.40;99.90
4687;DHT22;2357;47.316;-1.348;2022-08-11T03:33:32;24.30;99.90
4687;DHT22;2357;47.316;-1.348;2022-08-11T03:41:36;24.20;99.90
4687;DHT22;2357;47.316;-1.348;2022-08-11T04:01:56;24.00;99.90
4687;DHT22;2357;47.316;-1.348;2022-08-11T04:07:45;23.90;99.90
4687;DHT22;2357;47.316;-1.348;2022-08-11T04:52:05;23.50;99.90
4687;DHT22;2357;47.316;-1.348;2022-08-11T04:55:19;23.50;99.90
4687;DHT22;2357;47.316;-1.348;2022-08-11T05:04:12;23.30;99.90
4687;DHT22;2357;47.316;-1.348;2022-08-11T05:12:32;23.30;99.90
4687;DHT22;2357;47.316;-1.348;2022-08-11T05:15:01;23.30;99.90
4687;DHT22;2357;47.316;-1.348;2022-08-11T05:17:57;23.30;99.90
4687;DHT22;2357;47.316;-1.348;2022-08-11T05:20:55;23.30;99.90
4687;DHT22;2357;47.316;-1.348;2022-08-11T05:23:48;23.20;99.90
4687;DHT22;2357;47.316;-1.348;2022-08-11T05:26:42;23.30;99.90
4687;DHT22;2357;47.316;-1.348;2022-08-11T05:29:51;23.10;99.90
4687;DHT22;2357;47.316;-1.348;2022-08-11T05:32:42;23.10;99.90
4687;DHT22;2357;47.316;-1.348;2022-08-11T05:35:37;23.10;99.90
4687;DHT22;2357;47.316;-1.348;2022-08-11T05:38:12;23.10;99.90
4687;DHT22;2357;47.316;-1.348;2022-08-11T05:40:59;23.10;99.90
4687;DHT22;2357;47.316;-1.348;2022-08-11T05:43:44;23.20;99.90
4687;DHT22;2357;47.316;-1.348;2022-08-11T05:46:29;23.20;99.90
4687;DHT22;2357;47.316;-1.348;2022-08-11T05:49:22;23.20;99.90
4687;DHT22;2357;47.316;-1.348;2022-08-11T05:52:14;23.20;99.90
4687;DHT22;2357;47.316;-1.348;2022-08-11T05:55:04;23.10;99.90
4687;DHT22;2357;47.316;-1.348;2022-08-11T05:57:54;23.20;99.90
4687;DHT22;2357;47.316;-1.348;2022-08-11T06:00:21;23.20;99.90
4687;DHT22;2357;47.316;-1.348;2022-08-11T06:02:59;23.20;99.90
4687;DHT22;2357;47.316;-1.348;2022-08-11T06:05:33;23.20;99.90
4687;DHT22;2357;47.316;-1.348;2022-08-11T06:07:59;23.20;99.90
4687;DHT22;2357;47.316;-1.348;2022-08-11T06:10:30;23.20;99.90
4687;DHT22;2357;47.316;-1.348;2022-08-11T06:12:58;23.30;99.90
4687;DHT22;2357;47.316;-1.348;2022-08-11T06:15:26;23.20;99.90
4687;DHT22;2357;47.316;-1.348;2022-08-11T06:17:54;23.20;99.90
4687;DHT22;2357;47.316;-1.348;2022-08-11T06:20:21;23.20;99.90
4687;DHT22;2357;47.316;-1.348;2022-08-11T06:22:56;23.20;99.90
4687;DHT22;2357;47.316;-1.348;2022-08-11T06:25:33;23.30;99.90
4687;DHT22;2357;47.316;-1.348;2022-08-11T06:28:03;23.30;99.90
4687;DHT22;2357;47.316;-1.348;2022-08-11T06:30:56;23.30;99.90
4687;DHT22;2357;47.316;-1.348;2022-08-11T06:33:39;23.30;99.90
4687;DHT22;2357;47.316;-1.348;2022-08-11T06:39:31;23.30;99.90
4687;DHT22;2357;47.316;-1.348;2022-08-11T06:42:09;23.40;99.90
4687;DHT22;2357;47.316;-1.348;2022-08-11T06:44:43;23.50;99.90
4687;DHT22;2357;47.316;-1.348;2022-08-11T06:47:13;23.50;99.90
4687;DHT22;2357;47.316;-1.348;2022-08-11T06:49:45;23.50;99.90
4687;DHT22;2357;47.316;-1.348;2022-08-11T06:52:37;23.50;99.90
4687;DHT22;2357;47.316;-1.348;2022-08-11T06:55:13;23.50;99.90
4687;DHT22;2357;47.316;-1.348;2022-08-11T06:58:00;23.60;99.90
4687;DHT22;2357;47.316;-1.348;2022-08-11T07:00:47;23.60;99.90
4687;DHT22;2357;47.316;-1.348;2022-08-11T07:03:17;23.70;99.90
4687;DHT22;2357;47.316;-1.348;2022-08-11T07:05:53;23.80;99.90
4687;DHT22;2357;47.316;-1.348;2022-08-11T07:12:13;23.80;99.90
4687;DHT22;2357;47.316;-1.348;2022-08-11T07:15:01;23.90;99.90
4687;DHT22;2357;47.316;-1.348;2022-08-11T07:17:50;23.90;99.90
4687;DHT22;2357;47.316;-1.348;2022-08-11T07:20:38;24.00;99.90
4687;DHT22;2357;47.316;-1.348;2022-08-11T07:23:22;24.00;99.90
4687;DHT22;2357;47.316;-1.348;2022-08-11T07:26:08;24.10;99.90
4687;DHT22;2357;47.316;-1.348;2022-08-11T07:28:54;24.10;99.90
4687;DHT22;2357;47.316;-1.348;2022-08-11T07:31:29;24.20;99.90
4687;DHT22;2357;47.316;-1.348;2022-08-11T07:36:41;24.20;99.90
4687;DHT22;2357;47.316;-1.348;2022-08-11T07:39:15;24.30;99.90
4687;DHT22;2357;47.316;-1.348;2022-08-11T07:41:43;24.30;99.90
4687;DHT22;2357;47.316;-1.348;2022-08-11T07:44:09;24.40;99.90
4687;DHT22;2357;47.316;-1.348;2022-08-11T07:46:40;24.40;99.90
4687;DHT22;2357;47.316;-1.348;2022-08-11T07:49:25;24.40;99.90
4687;DHT22;2357;47.316;-1.348;2022-08-11T07:52:10;24.50;99.90
4687;DHT22;2357;47.316;-1.348;2022-08-11T07:54:51;24.60;99.90
4687;DHT22;2357;47.316;-1.348;2022-08-11T07:57:17;24.70;99.90
4687;DHT22;2357;47.316;-1.348;2022-08-11T08:00:03;24.80;99.90
4687;DHT22;2357;47.316;-1.348;2022-08-11T08:02:47;24.80;99.90
4687;DHT22;2357;47.316;-1.348;2022-08-11T08:05:32;24.90;99.90
4687;DHT22;2357;47.316;-1.348;2022-08-11T08:08:17;25.00;99.90
4687;DHT22;2357;47.316;-1.348;2022-08-11T08:11:02;25.10;99.90
4687;DHT22;2357;47.316;-1.348;2022-08-11T08:13:46;25.10;99.90
4687;DHT22;2357;47.316;-1.348;2022-08-11T08:16:32;25.20;99.90
4687;DHT22;2357;47.316;-1.348;2022-08-11T08:19:19;25.30;99.90
4687;DHT22;2357;47.316;-1.348;2022-08-11T08:21:46;25.40;99.90
4687;DHT22;2357;47.316;-1.348;2022-08-11T08:24:13;25.50;99.90
4687;DHT22;2357;47.316;-1.348;2022-08-11T08:26:40;25.50;99.90
4687;DHT22;2357;47.316;-1.348;2022-08-11T08:29:35;25.70;99.90
4687;DHT22;2357;47.316;-1.348;2022-08-11T08:32:20;25.80;99.90
4687;DHT22;2357;47.316;-1.348;2022-08-11T08:34:49;25.90;99.90
4687;DHT22;2357;47.316;-1.348;2022-08-11T08:37:18;26.00;99.90
4687;DHT22;2357;47.316;-1.348;2022-08-11T08:39:45;26.10;99.90
4687;DHT22;2357;47.316;-1.348;2022-08-11T08:42:12;26.20;99.90
4687;DHT22;2357;47.316;-1.348;2022-08-11T08:44:44;26.30;99.90
4687;DHT22;2357;47.316;-1.348;2022-08-11T08:47:16;26.40;99.90
4687;DHT22;2357;47.316;-1.348;2022-08-11T08:49:49;26.40;99.90
4687;DHT22;2357;47.316;-1.348;2022-08-11T08:52:21;26.60;99.90
4687;DHT22;2357;47.316;-1.348;2022-08-11T08:54:51;26.70;99.90
4687;DHT22;2357;47.316;-1.348;2022-08-11T08:57:22;26.80;99.90
4687;DHT22;2357;47.316;-1.348;2022-08-11T08:59:49;26.90;99.90
4687;DHT22;2357;47.316;-1.348;2022-08-11T09:02:16;27.00;99.90
4687;DHT22;2357;47.316;-1.348;2022-08-11T09:04:45;27.00;99.90
4687;DHT22;2357;47.316;-1.348;2022-08-11T09:07:17;27.10;99.90
4687;DHT22;2357;47.316;-1.348;2022-08-11T09:09:46;27.30;99.90
4687;DHT22;2357;47.316;-1.348;2022-08-11T09:12:12;27.40;99.90
4687;DHT22;2357;47.316;-1.348;2022-08-11T09:14:41;27.50;99.90
4687;DHT22;2357;47.316;-1.348;2022-08-11T09:17:29;27.60;99.90
4687;DHT22;2357;47.316;-1.348;2022-08-11T09:20:04;27.70;99.90
4687;DHT22;2357;47.316;-1.348;2022-08-11T09:22:35;27.80;99.90
4687;DHT22;2357;47.316;-1.348;2022-08-11T09:25:21;27.90;99.90
4687;DHT22;2357;47.316;-1.348;2022-08-11T09:28:10;28.00;99.90
4687;DHT22;2357;47.316;-1.348;2022-08-11T09:30:40;28.10;99.90
4687;DHT22;2357;47.316;-1.348;2022-08-11T09:33:06;28.20;99.90
4687;DHT22;2357;47.316;-1.348;2022-08-11T09:35:35;28.30;99.90
4687;DHT22;2357;47.316;-1.348;2022-08-11T09:38:05;28.30;99.90
4687;DHT22;2357;47.316;-1.348;2022-08-11T09:40:50;28.40;99.90
4687;DHT22;2357;47.316;-1.348;2022-08-11T09:43:18;28.60;99.90
4687;DHT22;2357;47.316;-1.348;2022-08-11T09:46:03;28.70;99.90
4687;DHT22;2357;47.316;-1.348;2022-08-11T09:48:39;28.80;99.90
4687;DHT22;2357;47.316;-1.348;2022-08-11T09:51:05;28.90;99.90
4687;DHT22;2357;47.316;-1.348;2022-08-11T09:53:34;29.00;99.90
4687;DHT22;2357;47.316;-1.348;2022-08-11T09:56:02;29.10;99.90
4687;DHT22;2357;47.316;-1.348;2022-08-11T09:58:50;29.30;99.90
4687;DHT22;2357;47.316;-1.348;2022-08-11T10:01:20;29.40;99.90
4687;DHT22;2357;47.316;-1.348;2022-08-11T10:04:10;29.40;99.90
4687;DHT22;2357;47.316;-1.348;2022-08-11T10:06:36;29.50;99.90
4687;DHT22;2357;47.316;-1.348;2022-08-11T10:09:23;29.60;99.90
4687;DHT22;2357;47.316;-1.348;2022-08-11T10:11:57;29.70;99.90
4687;DHT22;2357;47.316;-1.348;2022-08-11T10:14:24;29.80;99.90
4687;DHT22;2357;47.316;-1.348;2022-08-11T10:17:09;29.90;99.90
4687;DHT22;2357;47.316;-1.348;2022-08-11T10:19:36;30.00;99.90
4687;DHT22;2357;47.316;-1.348;2022-08-11T10:22:03;30.10;99.90
4687;DHT22;2357;47.316;-1.348;2022-08-11T10:24:48;30.20;99.90
4687;DHT22;2357;47.316;-1.348;2022-08-11T10:27:33;30.20;99.90
4687;DHT22;2357;47.316;-1.348;2022-08-11T10:29:59;30.30;99.90
4687;DHT22;2357;47.316;-1.348;2022-08-11T10:32:44;30.30;99.90
4687;DHT22;2357;47.316;-1.348;2022-08-11T10:35:31;30.50;99.90
4687;DHT22;2357;47.316;-1.348;2022-08-11T10:37:58;30.60;99.90
4687;DHT22;2357;47.316;-1.348;2022-08-11T10:40:24;30.70;99.90
4687;DHT22;2357;47.316;-1.348;2022-08-11T10:42:54;30.80;99.90
4687;DHT22;2357;47.316;-1.348;2022-08-11T10:45:29;30.80;99.90
4687;DHT22;2357;47.316;-1.348;2022-08-11T10:48:13;30.90;99.90
4687;DHT22;2357;47.316;-1.348;2022-08-11T10:50:44;31.00;99.90
4687;DHT22;2357;47.316;-1.348;2022-08-11T10:53:29;31.10;99.90
4687;DHT22;2357;47.316;-1.348;2022-08-11T10:56:14;31.20;99.90
4687;DHT22;2357;47.316;-1.348;2022-08-11T10:59:00;31.20;99.90
4687;DHT22;2357;47.316;-1.348;2022-08-11T11:01:32;31.40;99.70
4687;DHT22;2357;47.316;-1.348;2022-08-11T11:09:33;31.50;98.90
4687;DHT22;2357;47.316;-1.348;2022-08-11T11:12:12;31.60;99.10
4687;DHT22;2357;47.316;-1.348;2022-08-11T11:15:00;31.70;99.40
4687;DHT22;2357;47.316;-1.348;2022-08-11T11:17:51;31.80;99.90
4687;DHT22;2357;47.316;-1.348;2022-08-11T11:20:40;31.90;99.30
4687;DHT22;2357;47.316;-1.348;2022-08-11T11:26:01;32.20;99.60
4687;DHT22;2357;47.316;-1.348;2022-08-11T11:29:02;32.30;99.10
4687;DHT22;2357;47.316;-1.348;2022-08-11T11:31:52;32.40;98.90
4687;DHT22;2357;47.316;-1.348;2022-08-11T11:37:01;32.60;98.40
4687;DHT22;2357;47.316;-1.348;2022-08-11T11:39:29;32.70;97.80
4687;DHT22;2357;47.316;-1.348;2022-08-11T11:41:58;32.70;98.10
4687;DHT22;2357;47.316;-1.348;2022-08-11T11:44:25;32.80;98.10
4687;DHT22;2357;47.316;-1.348;2022-08-11T11:46:51;32.90;97.30
4687;DHT22;2357;47.316;-1.348;2022-08-11T11:49:22;32.80;97.30
4687;DHT22;2357;47.316;-1.348;2022-08-11T11:51:49;32.90;97.10
4687;DHT22;2357;47.316;-1.348;2022-08-11T11:54:21;33.10;97.40
4687;DHT22;2357;47.316;-1.348;2022-08-11T11:56:48;33.10;96.60
4687;DHT22;2357;47.316;-1.348;2022-08-11T11:59:21;33.20;97.00
4687;DHT22;2357;47.316;-1.348;2022-08-11T12:02:07;33.30;96.80
4687;DHT22;2357;47.316;-1.348;2022-08-11T12:04:36;33.50;97.00
4687;DHT22;2357;47.316;-1.348;2022-08-11T12:07:02;33.60;97.20
4687;DHT22;2357;47.316;-1.348;2022-08-11T12:09:48;33.80;97.00
4687;DHT22;2357;47.316;-1.348;2022-08-11T12:12:14;33.90;96.50
4687;DHT22;2357;47.316;-1.348;2022-08-11T12:14:59;34.00;96.50
4687;DHT22;2357;47.316;-1.348;2022-08-11T12:17:25;34.00;96.00
4687;DHT22;2357;47.316;-1.348;2022-08-11T12:19:52;34.20;97.50
4687;DHT22;2357;47.316;-1.348;2022-08-11T12:22:18;34.20;96.80
4687;DHT22;2357;47.316;-1.348;2022-08-11T12:25:02;34.20;95.60
4687;DHT22;2357;47.316;-1.348;2022-08-11T12:27:48;34.30;96.20
4687;DHT22;2357;47.316;-1.348;2022-08-11T12:30:14;34.40;96.20
4687;DHT22;2357;47.316;-1.348;2022-08-11T12:32:42;34.60;96.60
4687;DHT22;2357;47.316;-1.348;2022-08-11T12:35:08;34.70;95.80
4687;DHT22;2357;47.316;-1.348;2022-08-11T12:37:40;34.70;95.10
4687;DHT22;2357;47.316;-1.348;2022-08-11T12:40:10;34.80;95.30
4687;DHT22;2357;47.316;-1.348;2022-08-11T12:42:58;35.00;95.20
4687;DHT22;2357;47.316;-1.348;2022-08-11T12:45:44;35.00;95.30
4687;DHT22;2357;47.316;-1.348;2022-08-11T12:48:17;35.00;94.70
4687;DHT22;2357;47.316;-1.348;2022-08-11T12:51:09;35.10;94.50
4687;DHT22;2357;47.316;-1.348;2022-08-11T12:54:10;35.20;95.50
4687;DHT22;2357;47.316;-1.348;2022-08-11T12:56:41;35.30;94.00
4687;DHT22;2357;47.316;-1.348;2022-08-11T12:59:27;35.40;94.40
4687;DHT22;2357;47.316;-1.348;2022-08-11T13:02:15;35.60;95.10
4687;DHT22;2357;47.316;-1.348;2022-08-11T13:05:05;35.70;94.10
4687;DHT22;2357;47.316;-1.348;2022-08-11T13:07:32;35.60;93.70
4687;DHT22;2357;47.316;-1.348;2022-08-11T13:10:01;35.80;93.60
4687;DHT22;2357;47.316;-1.348;2022-08-11T13:12:28;35.80;93.50
4687;DHT22;2357;47.316;-1.348;2022-08-11T13:15:21;36.00;94.70
4687;DHT22;2357;47.316;-1.348;2022-08-11T13:17:50;36.10;94.10
4687;DHT22;2357;47.316;-1.348;2022-08-11T13:20:17;36.10;93.90
4687;DHT22;2357;47.316;-1.348;2022-08-11T13:22:47;36.30;93.70
4687;DHT22;2357;47.316;-1.348;2022-08-11T13:25:16;36.30;92.30
4687;DHT22;2357;47.316;-1.348;2022-08-11T13:27:43;36.50;92.80
4687;DHT22;2357;47.316;-1.348;2022-08-11T13:30:14;36.60;92.80
4687;DHT22;2357;47.316;-1.348;2022-08-11T13:33:00;36.60;92.40
4687;DHT22;2357;47.316;-1.348;2022-08-11T13:35:31;36.70;91.70
4687;DHT22;2357;47.316;-1.348;2022-08-11T13:37:59;36.80;92.90
4687;DHT22;2357;47.316;-1.348;2022-08-11T13:40:26;36.70;90.20
4687;DHT22;2357;47.316;-1.348;2022-08-11T13:42:52;36.60;90.50
4687;DHT22;2357;47.316;-1.348;2022-08-11T13:45:21;36.80;91.00
4687;DHT22;2357;47.316;-1.348;2022-08-11T13:47:48;36.70;90.30
4687;DHT22;2357;47.316;-1.348;2022-08-11T13:50:16;36.80;91.00
4687;DHT22;2357;47.316;-1.348;2022-08-11T13:52:43;36.90;91.10
4687;DHT22;2357;47.316;-1.348;2022-08-11T13:55:11;37.00;91.50
4687;DHT22;2357;47.316;-1.348;2022-08-11T13:57:48;37.10;90.70
4687;DHT22;2357;47.316;-1.348;2022-08-11T14:00:15;37.10;91.20
4687;DHT22;2357;47.316;-1.348;2022-08-11T14:02:42;37.20;89.10
4687;DHT22;2357;47.316;-1.348;2022-08-11T14:05:21;37.10;90.50
4687;DHT22;2357;47.316;-1.348;2022-08-11T14:07:52;37.10;89.20
4687;DHT22;2357;47.316;-1.348;2022-08-11T14:10:20;37.10;89.70
4687;DHT22;2357;47.316;-1.348;2022-08-11T14:12:58;37.30;90.10
4687;DHT22;2357;47.316;-1.348;2022-08-11T14:15:44;37.40;91.10
4687;DHT22;2357;47.316;-1.348;2022-08-11T14:20:42;37.50;90.10
4687;DHT22;2357;47.316;-1.348;2022-08-11T14:23:32;37.50;89.80
4687;DHT22;2357;47.316;-1.348;2022-08-11T14:26:00;37.70;90.00
4687;DHT22;2357;47.316;-1.348;2022-08-11T14:28:44;37.70;90.10
4687;DHT22;2357;47.316;-1.348;2022-08-11T14:31:15;37.80;89.70
4687;DHT22;2357;47.316;-1.348;2022-08-11T14:33:42;37.80;88.90
4687;DHT22;2357;47.316;-1.348;2022-08-11T14:36:10;37.70;86.70
4687;DHT22;2357;47.316;-1.348;2022-08-11T14:38:37;37.70;90.10
4687;DHT22;2357;47.316;-1.348;2022-08-11T14:41:05;37.80;88.40
4687;DHT22;2357;47.316;-1.348;2022-08-11T14:43:52;37.70;88.00
4687;DHT22;2357;47.316;-1.348;2022-08-11T14:46:39;37.90;90.00
4687;DHT22;2357;47.316;-1.348;2022-08-11T14:49:25;37.90;89.00
4687;DHT22;2357;47.316;-1.348;2022-08-11T14:51:51;37.80;88.10
4687;DHT22;2357;47.316;-1.348;2022-08-11T14:54:25;37.90;87.40
4687;DHT22;2357;47.316;-1.348;2022-08-11T14:57:11;37.80;88.00
4687;DHT22;2357;47.316;-1.348;2022-08-11T14:59:37;38.00;91.20
4687;DHT22;2357;47.316;-1.348;2022-08-11T15:02:04;38.00;89.40
4687;DHT22;2357;47.316;-1.348;2022-08-11T15:04:51;37.90;86.80
4687;DHT22;2357;47.316;-1.348;2022-08-11T15:07:17;38.00;86.40
4687;DHT22;2357;47.316;-1.348;2022-08-11T15:09:57;38.10;85.80
4687;DHT22;2357;47.316;-1.348;2022-08-11T15:12:23;38.20;88.60
4687;DHT22;2357;47.316;-1.348;2022-08-11T15:14:49;38.10;87.10
4687;DHT22;2357;47.316;-1.348;2022-08-11T15:17:35;38.30;86.60
4687;DHT22;2357;47.316;-1.348;2022-08-11T15:20:08;38.20;85.30
4687;DHT22;2357;47.316;-1.348;2022-08-11T15:22:53;38.20;85.80
4687;DHT22;2357;47.316;-1.348;2022-08-11T15:25:42;38.20;86.60
4687;DHT22;2357;47.316;-1.348;2022-08-11T15:28:13;38.10;86.10
4687;DHT22;2357;47.316;-1.348;2022-08-11T15:31:13;38.10;85.00
4687;DHT22;2357;47.316;-1.348;2022-08-11T15:34:02;38.10;84.30
4687;DHT22;2357;47.316;-1.348;2022-08-11T15:36:48;38.20;88.80
4687;DHT22;2357;47.316;-1.348;2022-08-11T15:39:39;38.30;86.80
4687;DHT22;2357;47.316;-1.348;2022-08-11T15:42:26;38.20;85.90
4687;DHT22;2357;47.316;-1.348;2022-08-11T15:45:13;38.20;86.10
4687;DHT22;2357;47.316;-1.348;2022-08-11T15:48:05;38.10;86.90
4687;DHT22;2357;47.316;-1.348;2022-08-11T15:50:33;38.10;86.60
4687;DHT22;2357;47.316;-1.348;2022-08-11T15:53:12;38.00;87.20
4687;DHT22;2357;47.316;-1.348;2022-08-11T15:55:40;37.90;86.10
4687;DHT22;2357;47.316;-1.348;2022-08-11T15:58:08;37.90;85.50
4687;DHT22;2357;47.316;-1.348;2022-08-11T16:00:55;37.90;85.20
4687;DHT22;2357;47.316;-1.348;2022-08-11T16:03:54;37.90;86.90
4687;DHT22;2357;47.316;-1.348;2022-08-11T16:09:32;38.10;86.30
4687;DHT22;2357;47.316;-1.348;2022-08-11T16:12:07;38.00;86.10
4687;DHT22;2357;47.316;-1.348;2022-08-11T16:14:38;38.00;84.40
4687;DHT22;2357;47.316;-1.348;2022-08-11T16:17:25;38.10;84.80
4687;DHT22;2357;47.316;-1.348;2022-08-11T16:19:53;38.00;83.60
4687;DHT22;2357;47.316;-1.348;2022-08-11T16:22:23;38.10;84.50
4687;DHT22;2357;47.316;-1.348;2022-08-11T16:24:53;38.10;83.40
4687;DHT22;2357;47.316;-1.348;2022-08-11T16:27:20;38.30;84.90
4687;DHT22;2357;47.316;-1.348;2022-08-11T16:32:20;43.40;83.60
4687;DHT22;2357;47.316;-1.348;2022-08-11T16:34:55;46.40;83.50
4687;DHT22;2357;47.316;-1.348;2022-08-11T16:37:41;48.40;78.20
4687;DHT22;2357;47.316;-1.348;2022-08-11T16:40:26;50.20;73.70
4687;DHT22;2357;47.316;-1.348;2022-08-11T16:42:55;51.10;71.40
4687;DHT22;2357;47.316;-1.348;2022-08-11T16:45:41;50.70;67.70
4687;DHT22;2357;47.316;-1.348;2022-08-11T16:48:36;46.10;68.50
4687;DHT22;2357;47.316;-1.348;2022-08-11T16:51:03;42.50;67.30
4687;DHT22;2357;47.316;-1.348;2022-08-11T16:53:29;40.60;72.90
4687;DHT22;2357;47.316;-1.348;2022-08-11T16:55:58;39.30;73.70
4687;DHT22;2357;47.316;-1.348;2022-08-11T16:58:29;38.50;74.10
4687;DHT22;2357;47.316;-1.348;2022-08-11T17:01:15;38.00;76.50
4687;DHT22;2357;47.316;-1.348;2022-08-11T17:03:49;37.50;74.60
4687;DHT22;2357;47.316;-1.348;2022-08-11T17:06:37;37.20;74.60
4687;DHT22;2357;47.316;-1.348;2022-08-11T17:09:24;37.10;76.40
4687;DHT22;2357;47.316;-1.348;2022-08-11T17:12:09;36.90;76.10
4687;DHT22;2357;47.316;-1.348;2022-08-11T17:14:56;36.70;77.20
4687;DHT22;2357;47.316;-1.348;2022-08-11T17:17:32;36.50;78.10
4687;DHT22;2357;47.316;-1.348;2022-08-11T17:20:04;36.40;76.90
4687;DHT22;2357;47.316;-1.348;2022-08-11T17:22:33;36.20;76.00
4687;DHT22;2357;47.316;-1.348;2022-08-11T17:25:19;36.20;79.50
4687;DHT22;2357;47.316;-1.348;2022-08-11T17:27:46;36.00;78.10
4687;DHT22;2357;47.316;-1.348;2022-08-11T17:30:13;35.90;78.70
4687;DHT22;2357;47.316;-1.348;2022-08-11T17:32:42;35.70;79.70
4687;DHT22;2357;47.316;-1.348;2022-08-11T17:35:29;35.60;78.60
4687;DHT22;2357;47.316;-1.348;2022-08-11T17:38:19;35.50;78.90
4687;DHT22;2357;47.316;-1.348;2022-08-11T17:40:48;35.40;80.70
4687;DHT22;2357;47.316;-1.348;2022-08-11T17:43:34;35.30;79.50
4687;DHT22;2357;47.316;-1.348;2022-08-11T17:46:19;35.20;79.80
4687;DHT22;2357;47.316;-1.348;2022-08-11T17:49:06;35.00;77.80
4687;DHT22;2357;47.316;-1.348;2022-08-11T17:51:33;35.00;78.00
4687;DHT22;2357;47.316;-1.348;2022-08-11T17:54:19;34.90;78.30
4687;DHT22;2357;47.316;-1.348;2022-08-11T17:57:05;34.90;79.30
4687;DHT22;2357;47.316;-1.348;2022-08-11T17:59:50;34.80;77.10
4687;DHT22;2357;47.316;-1.348;2022-08-11T18:02:39;34.70;80.70
4687;DHT22;2357;47.316;-1.348;2022-08-11T18:05:30;34.60;80.60
4687;DHT22;2357;47.316;-1.348;2022-08-11T18:07:58;34.60;78.70
4687;DHT22;2357;47.316;-1.348;2022-08-11T18:10:44;34.40;79.60
4687;DHT22;2357;47.316;-1.348;2022-08-11T18:13:33;34.40;82.80
4687;DHT22;2357;47.316;-1.348;2022-08-11T18:16:18;34.30;82.50
4687;DHT22;2357;47.316;-1.348;2022-08-11T18:19:04;34.20;85.20
4687;DHT22;2357;47.316;-1.348;2022-08-11T18:21:50;34.10;82.40
4687;DHT22;2357;47.316;-1.348;2022-08-11T18:24:37;34.00;82.20
4687;DHT22;2357;47.316;-1.348;2022-08-11T18:27:25;34.00;83.50
4687;DHT22;2357;47.316;-1.348;2022-08-11T18:30:10;33.90;83.70
4687;DHT22;2357;47.316;-1.348;2022-08-11T18:32:57;33.90;85.30
4687;DHT22;2357;47.316;-1.348;2022-08-11T18:35:43;33.70;80.60
4687;DHT22;2357;47.316;-1.348;2022-08-11T18:38:31;33.70;83.50
4687;DHT22;2357;47.316;-1.348;2022-08-11T18:41:16;33.70;84.50
4687;DHT22;2357;47.316;-1.348;2022-08-11T18:44:04;33.70;86.10
4687;DHT22;2357;47.316;-1.348;2022-08-11T18:46:50;33.60;84.80
4687;DHT22;2357;47.316;-1.348;2022-08-11T18:49:38;33.50;84.10
4687;DHT22;2357;47.316;-1.348;2022-08-11T18:52:24;33.50;83.90
4687;DHT22;2357;47.316;-1.348;2022-08-11T18:55:14;33.40;87.00
4687;DHT22;2357;47.316;-1.348;2022-08-11T18:58:02;33.20;82.40
4687;DHT22;2357;47.316;-1.348;2022-08-11T19:00:48;33.10;82.80
4687;DHT22;2357;47.316;-1.348;2022-08-11T19:03:34;33.10;82.10
4687;DHT22;2357;47.316;-1.348;2022-08-11T19:06:21;33.10;83.50
4687;DHT22;2357;47.316;-1.348;2022-08-11T19:09:11;32.90;82.00
4687;DHT22;2357;47.316;-1.348;2022-08-11T19:11:58;32.90;80.80
4687;DHT22;2357;47.316;-1.348;2022-08-11T19:14:44;32.70;80.00
4687;DHT22;2357;47.316;-1.348;2022-08-11T19:17:30;32.70;80.00
4687;DHT22;2357;47.316;-1.348;2022-08-11T19:20:25;32.60;79.70
4687;DHT22;2357;47.316;-1.348;2022-08-11T19:23:11;32.60;80.10
4687;DHT22;2357;47.316;-1.348;2022-08-11T19:25:57;32.50;79.40
4687;DHT22;2357;47.316;-1.348;2022-08-11T19:28:44;32.40;80.60
4687;DHT22;2357;47.316;-1.348;2022-08-11T19:31:29;32.40;80.50
4687;DHT22;2357;47.316;-1.348;2022-08-11T19:34:19;32.30;80.20
4687;DHT22;2357;47.316;-1.348;2022-08-11T19:37:05;32.20;80.00
4687;DHT22;2357;47.316;-1.348;2022-08-11T19:39:59;32.10;79.00
4687;DHT22;2357;47.316;-1.348;2022-08-11T19:42:44;32.10;79.90
4687;DHT22;2357;47.316;-1.348;2022-08-11T19:45:29;32.10;79.90
4687;DHT22;2357;47.316;-1.348;2022-08-11T19:48:13;32.00;77.50
4687;DHT22;2357;47.316;-1.348;2022-08-11T19:50:58;31.90;77.70
4687;DHT22;2357;47.316;-1.348;2022-08-11T19:53:46;31.90;77.70
4687;DHT22;2357;47.316;-1.348;2022-08-11T19:56:30;31.80;79.10
4687;DHT22;2357;47.316;-1.348;2022-08-11T19:59:15;31.80;78.40
4687;DHT22;2357;47.316;-1.348;2022-08-11T20:02:00;31.70;77.60
4687;DHT22;2357;47.316;-1.348;2022-08-11T20:04:44;31.70;78.40
4687;DHT22;2357;47.316;-1.348;2022-08-11T20:07:29;31.60;79.00
4687;DHT22;2357;47.316;-1.348;2022-08-11T20:10:16;31.50;78.00
4687;DHT22;2357;47.316;-1.348;2022-08-11T20:13:06;31.40;77.50
4687;DHT22;2357;47.316;-1.348;2022-08-11T20:15:51;31.40;77.00
4687;DHT22;2357;47.316;-1.348;2022-08-11T20:18:37;31.40;78.00
4687;DHT22;2357;47.316;-1.348;2022-08-11T20:21:23;31.40;79.60
4687;DHT22;2357;47.316;-1.348;2022-08-11T20:24:08;31.30;77.00
4687;DHT22;2357;47.316;-1.348;2022-08-11T20:26:53;31.20;77.20
4687;DHT22;2357;47.316;-1.348;2022-08-11T20:29:38;31.10;77.70